sensor_id;sensor_type;location;lat;lon;timestamp;temperature;humidity
24814;DHT22;12904;50.088;11.414;2022-10-24T00:01:41;13.50;99.90
24814;DHT22;12904;50.088;11.414;2022-10-24T00:04:06;13.50;99.90
24814;DHT22;12904;50.088;11.414;2022-10-24T00:06:32;13.50;99.90
24814;DHT22;12904;50.088;11.414;2022-10-24T00:08:58;13.40;99.90
24814;DHT22;12904;50.088;11.414;2022-10-24T00:11:26;13.40;99.90
24814;DHT22;12904;50.088;11.414;2022-10-24T00:13:52;13.30;99.90
24814;DHT22;12904;50.088;11.414;2022-10-24T00:16:19;13.30;99.90
24814;DHT22;12904;50.088;11.414;2022-10-24T00:18:45;13.30;99.90
24814;DHT22;12904;50.088;11.414;2022-10-24T00:21:11;13.30;99.90
24814;DHT22;12904;50.088;11.414;2022-10-24T00:23:36;13.30;99.90
24814;DHT22;12904;50.088;11.414;2022-10-24T00:26:03;13.30;99.90
24814;DHT22;12904;50.088;11.414;2022-10-24T00:28:34;13.30;99.90
24814;DHT22;12904;50.088;11.414;2022-10-24T00:31:00;13.20;99.90
24814;DHT22;12904;50.088;11.414;2022-10-24T00:33:26;13.20;99.90
24814;DHT22;12904;50.088;11.414;2022-10-24T00:35:52;13.10;99.90
24814;DHT22;12904;50.088;11.414;2022-10-24T00:38:18;13.10;99.90
24814;DHT22;12904;50.088;11.414;2022-10-24T00:40:44;13.00;99.90
24814;DHT22;12904;50.088;11.414;2022-10-24T00:43:23;12.90;99.90
24814;DHT22;12904;50.088;11.414;2022-10-24T00:45:59;12.90;99.90
24814;DHT22;12904;50.088;11.414;2022-10-24T00:51:13;12.90;99.90
24814;DHT22;12904;50.088;11.414;2022-10-24T00:53:47;12.80;99.90
24814;DHT22;12904;50.088;11.414;2022-10-24T00:56:15;12.80;99.90
24814;DHT22;12904;50.088;11.414;2022-10-24T00:58:44;12.70;99.90
24814;DHT22;12904;50.088;11.414;2022-10-24T01:01:12;12.70;99.90
24814;DHT22;12904;50.088;11.414;2022-10-24T01:03:38;12.70;99.90
24814;DHT22;12904;50.088;11.414;2022-10-24T01:06:27;12.70;99.90
24814;DHT22;12904;50.088;11.414;2022-10-24T01:30:23;12.40;99.90
24814;DHT22;12904;50.088;11.414;2022-10-24T01:38:20;12.40;99.90
24814;DHT22;12904;50.088;11.414;2022-10-24T01:43:38;12.30;99.90
24814;DHT22;12904;50.088;11.414;2022-10-24T01:46:10;12.30;99.90
24814;DHT22;12904;50.088;11.414;2022-10-24T01:48:44;12.30;99.90
24814;DHT22;12904;50.088;11.414;2022-10-24T01:51:13;12.30;99.90
24814;DHT22;12904;50.088;11.414;2022-10-24T01:53:41;12.30;99.90
24814;DHT22;12904;50.088;11.414;2022-10-24T01:56:07;12.30;99.90
24814;DHT22;12904;50.088;11.414;2022-10-24T01:58:33;12.30;99.90
24814;DHT22;12904;50.088;11.414;2022-10-24T02:01:02;12.40;99.90
24814;DHT22;12904;50.088;11.414;2022-10-24T02:03:41;12.40;99.90
24814;DHT22;12904;50.088;11.414;2022-10-24T02:06:17;12.40;99.90
24814;DHT22;12904;50.088;11.414;2022-10-24T02:08:55;12.40;99.90
24814;DHT22;12904;50.088;11.414;2022-10-24T02:11:21;12.40;99.90
24814;DHT22;12904;50.088;11.414;2022-10-24T02:14:04;12.40;99.90
24814;DHT22;12904;50.088;11.414;2022-10-24T02:16:31;12.40;99.90
24814;DHT22;12904;50.088;11.414;2022-10-24T02:18:57;12.40;99.90
24814;DHT22;12904;50.088;11.414;2022-10-24T02:24:26;12.50;99.90
24814;DHT22;12904;50.088;11.414;2022-10-24T02:26:53;12.60;99.90
24814;DHT22;12904;50.088;11.414;2022-10-24T02:29:28;12.60;99.90
24814;DHT22;12904;50.088;11.414;2022-10-24T02:31:57;12.60;99.90
24814;DHT22;12904;50.088;11.414;2022-10-24T02:34:25;12.60;99.90
24814;DHT22;12904;50.088;11.414;2022-10-24T02:36:54;12.70;99.90
24814;DHT22;12904;50.088;11.414;2022-10-24T02:39:21;12.60;99.90
24814;DHT22;12904;50.088;11.414;2022-10-24T02:41:48;12.60;99.90
24814;DHT22;12904;50.088;11.414;2022-10-24T02:44:17;12.60;99.90
24814;DHT22;12904;50.088;11.414;2022-10-24T02:46:44;12.60;99.90
24814;DHT22;12904;50.088;11.414;2022-10-24T02:49:11;12.60;99.90
24814;DHT22;12904;50.088;11.414;2022-10-24T02:51:39;12.60;99.90
24814;DHT22;12904;50.088;11.414;2022-10-24T02:54:05;12.70;99.90
24814;DHT22;12904;50.088;11.414;2022-10-24T02:56:32;12.70;99.90
24814;DHT22;12904;50.088;11.414;2022-10-24T02:58:58;12.70;99.90
24814;DHT22;12904;50.088;11.414;2022-10-24T03:01:24;12.70;99.90
24814;DHT22;12904;50.088;11.414;2022-10-24T03:03:49;12.70;99.90
24814;DHT22;12904;50.088;11.414;2022-10-24T03:06:15;12.70;99.90
24814;DHT22;12904;50.088;11.414;2022-10-24T03:08:41;12.70;99.90
24814;DHT22;12904;50.088;11.414;2022-10-24T03:11:06;12.70;99.90
24814;DHT22;12904;50.088;11.414;2022-10-24T03:13:32;12.60;99.90
24814;DHT22;12904;50.088;11.414;2022-10-24T03:15:58;12.60;99.90
24814;DHT22;12904;50.088;11.414;2022-10-24T03:18:23;12.50;99.90
24814;DHT22;12904;50.088;11.414;2022-10-24T03:20:49;12.60;99.90
24814;DHT22;12904;50.088;11.414;2022-10-24T03:23:14;12.60;99.90
24814;DHT22;12904;50.088;11.414;2022-10-24T03:25:41;12.60;99.90
24814;DHT22;12904;50.088;11.414;2022-10-24T03:28:07;12.60;99.90
24814;DHT22;12904;50.088;11.414;2022-10-24T03:30:32;12.60;99.90
24814;DHT22;12904;50.088;11.414;2022-10-24T03:32:58;12.60;99.90
24814;DHT22;12904;50.088;11.414;2022-10-24T03:35:24;12.70;99.90
24814;DHT22;12904;50.088;11.414;2022-10-24T03:37:49;12.60;99.90
24814;DHT22;12904;50.088;11.414;2022-10-24T03:40:15;12.70;99.90
24814;DHT22;12904;50.088;11.414;2022-10-24T03:42:40;12.70;99.90
24814;DHT22;12904;50.088;11.414;2022-10-24T03:45:06;12.70;99.90
24814;DHT22;12904;50.088;11.414;2022-10-24T03:47:32;12.60;99.90
24814;DHT22;12904;50.088;11.414;2022-10-24T03:49:58;12.60;99.90
24814;DHT22;12904;50.088;11.414;2022-10-24T03:52:23;12.60;99.90
24814;DHT22;12904;50.088;11.414;2022-10-24T03:54:49;12.60;99.90
24814;DHT22;12904;50.088;11.414;2022-10-24T03:57:15;12.60;99.90
24814;DHT22;12904;50.088;11.414;2022-10-24T03:59:40;12.60;99.90
24814;DHT22;12904;50.088;11.414;2022-10-24T04:02:06;12.70;99.90
24814;DHT22;12904;50.088;11.414;2022-10-24T04:04:32;12.70;99.90
24814;DHT22;12904;50.088;11.414;2022-10-24T04:06:58;12.70;99.90
24814;DHT22;12904;50.088;11.414;2022-10-24T04:09:25;12.70;99.90
24814;DHT22;12904;50.088;11.414;2022-10-24T04:11:51;12.80;99.90
24814;DHT22;12904;50.088;11.414;2022-10-24T04:14:18;12.90;99.90
24814;DHT22;12904;50.088;11.414;2022-10-24T04:16:44;12.90;99.90
24814;DHT22;12904;50.088;11.414;2022-10-24T04:19:09;12.90;99.90
24814;DHT22;12904;50.088;11.414;2022-10-24T04:21:36;12.90;99.90
24814;DHT22;12904;50.088;11.414;2022-10-24T04:24:02;12.90;99.90
24814;DHT22;12904;50.088;11.414;2022-10-24T04:26:27;12.90;99.90
24814;DHT22;12904;50.088;11.414;2022-10-24T04:28:53;12.90;99.90
24814;DHT22;12904;50.088;11.414;2022-10-24T04:31:19;13.00;99.90
24814;DHT22;12904;50.088;11.414;2022-10-24T04:33:44;13.00;99.90
24814;DHT22;12904;50.088;11.414;2022-10-24T04:36:10;13.00;99.90
24814;DHT22;12904;50.088;11.414;2022-10-24T04:38:36;12.90;99.90
24814;DHT22;12904;50.088;11.414;2022-10-24T04:41:01;12.90;99.90
24814;DHT22;12904;50.088;11.414;2022-10-24T04:43:27;12.80;99.90
24814;DHT22;12904;50.088;11.414;2022-10-24T04:45:53;12.80;99.90
24814;DHT22;12904;50.088;11.414;2022-10-24T04:48:18;12.80;99.90
24814;DHT22;12904;50.088;11.414;2022-10-24T04:50:45;12.90;99.90
24814;DHT22;12904;50.088;11.414;2022-10-24T04:53:11;12.90;99.90
24814;DHT22;12904;50.088;11.414;2022-10-24T04:55:36;12.90;99.90
24814;DHT22;12904;50.088;11.414;2022-10-24T04:58:03;13.00;99.90
24814;DHT22;12904;50.088;11.414;2022-10-24T05:00:29;13.00;99.90
24814;DHT22;12904;50.088;11.414;2022-10-24T05:02:55;13.00;99.90
24814;DHT22;12904;50.088;11.414;2022-10-24T05:05:20;13.00;99.90
24814;DHT22;12904;50.088;11.414;2022-10-24T05:07:47;13.00;99.90
24814;DHT22;12904;50.088;11.414;2022-10-24T05:10:14;13.00;99.90
24814;DHT22;12904;50.088;11.414;2022-10-24T05:12:41;12.90;99.90
24814;DHT22;12904;50.088;11.414;2022-10-24T05:15:07;12.90;99.90
24814;DHT22;12904;50.088;11.414;2022-10-24T05:17:33;12.90;99.90
24814;DHT22;12904;50.088;11.414;2022-10-24T05:19:59;12.90;99.90
24814;DHT22;12904;50.088;11.414;2022-10-24T05:22:25;12.90;99.90
24814;DHT22;12904;50.088;11.414;2022-10-24T05:24:50;12.90;99.90
24814;DHT22;12904;50.088;11.414;2022-10-24T05:27:16;12.90;99.90
24814;DHT22;12904;50.088;11.414;2022-10-24T05:29:51;12.90;99.90
24814;DHT22;12904;50.088;11.414;2022-10-24T05:32:17;12.90;99.90
24814;DHT22;12904;50.088;11.414;2022-10-24T05:34:43;12.90;99.90
24814;DHT22;12904;50.088;11.414;2022-10-24T05:37:08;12.80;99.90
24814;DHT22;12904;50.088;11.414;2022-10-24T05:39:34;12.80;99.90
24814;DHT22;12904;50.088;11.414;2022-10-24T05:42:00;12.80;99.90
24814;DHT22;12904;50.088;11.414;2022-10-24T05:44:26;12.80;99.90
24814;DHT22;12904;50.088;11.414;2022-10-24T05:46:52;12.80;99.90
24814;DHT22;12904;50.088;11.414;2022-10-24T05:49:17;12.80;99.90
24814;DHT22;12904;50.088;11.414;2022-10-24T05:51:43;12.80;99.90
24814;DHT22;12904;50.088;11.414;2022-10-24T05:54:09;12.80;99.90
24814;DHT22;12904;50.088;11.414;2022-10-24T05:56:34;12.80;99.90
24814;DHT22;12904;50.088;11.414;2022-10-24T05:59:00;12.80;99.90
24814;DHT22;12904;50.088;11.414;2022-10-24T06:01:28;12.80;99.90
24814;DHT22;12904;50.088;11.414;2022-10-24T06:03:53;12.80;99.90
24814;DHT22;12904;50.088;11.414;2022-10-24T06:06:19;12.80;99.90
24814;DHT22;12904;50.088;11.414;2022-10-24T06:08:45;12.80;99.90
24814;DHT22;12904;50.088;11.414;2022-10-24T06:11:11;12.90;99.90
24814;DHT22;12904;50.088;11.414;2022-10-24T06:13:37;12.90;99.90
24814;DHT22;12904;50.088;11.414;2022-10-24T06:16:05;12.90;99.90
24814;DHT22;12904;50.088;11.414;2022-10-24T06:18:31;12.90;99.90
24814;DHT22;12904;50.088;11.414;2022-10-24T06:21:00;12.90;99.90
24814;DHT22;12904;50.088;11.414;2022-10-24T06:23:26;13.00;99.90
24814;DHT22;12904;50.088;11.414;2022-10-24T06:25:51;13.00;99.90
24814;DHT22;12904;50.088;11.414;2022-10-24T06:28:17;13.00;99.90
24814;DHT22;12904;50.088;11.414;2022-10-24T06:30:42;13.10;99.90
24814;DHT22;12904;50.088;11.414;2022-10-24T06:33:09;13.10;99.90
24814;DHT22;12904;50.088;11.414;2022-10-24T06:35:34;13.10;99.90
24814;DHT22;12904;50.088;11.414;2022-10-24T06:38:00;13.10;99.90
24814;DHT22;12904;50.088;11.414;2022-10-24T06:40:26;13.10;99.90
24814;DHT22;12904;50.088;11.414;2022-10-24T06:42:51;13.10;99.90
24814;DHT22;12904;50.088;11.414;2022-10-24T06:45:17;13.20;99.90
24814;DHT22;12904;50.088;11.414;2022-10-24T06:47:45;13.20;99.90
24814;DHT22;12904;50.088;11.414;2022-10-24T06:50:11;13.30;99.90
24814;DHT22;12904;50.088;11.414;2022-10-24T06:52:37;13.30;99.90
24814;DHT22;12904;50.088;11.414;2022-10-24T06:55:03;13.40;99.90
24814;DHT22;12904;50.088;11.414;2022-10-24T06:57:28;13.40;99.90
24814;DHT22;12904;50.088;11.414;2022-10-24T06:59:54;13.50;99.90
24814;DHT22;12904;50.088;11.414;2022-10-24T07:02:20;13.50;99.90
24814;DHT22;12904;50.088;11.414;2022-10-24T07:04:45;13.50;99.90
24814;DHT22;12904;50.088;11.414;2022-10-24T07:07:29;13.50;99.90
24814;DHT22;12904;50.088;11.414;2022-10-24T07:09:56;13.50;99.90
24814;DHT22;12904;50.088;11.414;2022-10-24T07:12:23;13.60;99.90
24814;DHT22;12904;50.088;11.414;2022-10-24T07:14:49;13.60;99.90
24814;DHT22;12904;50.088;11.414;2022-10-24T07:17:15;13.60;99.90
24814;DHT22;12904;50.088;11.414;2022-10-24T07:19:41;13.50;99.90
24814;DHT22;12904;50.088;11.414;2022-10-24T07:22:07;13.50;99.90
24814;DHT22;12904;50.088;11.414;2022-10-24T07:24:33;13.50;99.90
24814;DHT22;12904;50.088;11.414;2022-10-24T07:26:58;13.50;99.90
24814;DHT22;12904;50.088;11.414;2022-10-24T07:29:24;13.50;99.90
24814;DHT22;12904;50.088;11.414;2022-10-24T07:31:50;13.50;99.90
24814;DHT22;12904;50.088;11.414;2022-10-24T07:34:16;13.50;99.90
24814;DHT22;12904;50.088;11.414;2022-10-24T07:36:42;13.50;99.90
24814;DHT22;12904;50.088;11.414;2022-10-24T07:39:07;13.50;99.90
24814;DHT22;12904;50.088;11.414;2022-10-24T07:41:36;13.50;99.90
24814;DHT22;12904;50.088;11.414;2022-10-24T07:44:03;13.50;99.90
24814;DHT22;12904;50.088;11.414;2022-10-24T07:46:29;13.50;99.90
24814;DHT22;12904;50.088;11.414;2022-10-24T07:48:55;13.40;99.90
24814;DHT22;12904;50.088;11.414;2022-10-24T07:51:21;13.40;99.90
24814;DHT22;12904;50.088;11.414;2022-10-24T07:53:47;13.40;99.90
24814;DHT22;12904;50.088;11.414;2022-10-24T07:56:15;13.40;99.90
24814;DHT22;12904;50.088;11.414;2022-10-24T07:58:42;13.40;99.90
24814;DHT22;12904;50.088;11.414;2022-10-24T08:01:22;13.40;99.90
24814;DHT22;12904;50.088;11.414;2022-10-24T08:03:48;13.40;99.90
24814;DHT22;12904;50.088;11.414;2022-10-24T08:06:17;13.40;99.90
24814;DHT22;12904;50.088;11.414;2022-10-24T08:08:43;13.40;99.90
24814;DHT22;12904;50.088;11.414;2022-10-24T08:11:19;13.30;99.90
24814;DHT22;12904;50.088;11.414;2022-10-24T08:13:46;13.40;99.90
24814;DHT22;12904;50.088;11.414;2022-10-24T08:16:14;13.40;99.90
24814;DHT22;12904;50.088;11.414;2022-10-24T08:18:40;13.40;99.90
24814;DHT22;12904;50.088;11.414;2022-10-24T08:21:08;13.40;99.90
24814;DHT22;12904;50.088;11.414;2022-10-24T08:23:38;13.40;99.90
24814;DHT22;12904;50.088;11.414;2022-10-24T08:26:05;13.40;99.90
24814;DHT22;12904;50.088;11.414;2022-10-24T08:28:31;13.40;99.90
24814;DHT22;12904;50.088;11.414;2022-10-24T08:30:59;13.40;99.90
24814;DHT22;12904;50.088;11.414;2022-10-24T08:33:25;13.50;99.90
24814;DHT22;12904;50.088;11.414;2022-10-24T08:35:53;13.50;99.90
24814;DHT22;12904;50.088;11.414;2022-10-24T08:38:19;13.50;99.90
24814;DHT22;12904;50.088;11.414;2022-10-24T08:40:46;13.60;99.90
24814;DHT22;12904;50.088;11.414;2022-10-24T08:43:14;13.60;99.90
24814;DHT22;12904;50.088;11.414;2022-10-24T08:46:03;13.60;99.90
24814;DHT22;12904;50.088;11.414;2022-10-24T08:48:44;13.70;99.90
24814;DHT22;12904;50.088;11.414;2022-10-24T08:51:40;13.70;99.90
24814;DHT22;12904;50.088;11.414;2022-10-24T08:54:15;13.70;99.90
24814;DHT22;12904;50.088;11.414;2022-10-24T08:56:42;13.70;99.90
24814;DHT22;12904;50.088;11.414;2022-10-24T08:59:11;13.70;99.90
24814;DHT22;12904;50.088;11.414;2022-10-24T09:01:45;13.70;99.90
24814;DHT22;12904;50.088;11.414;2022-10-24T09:04:15;13.70;99.90
24814;DHT22;12904;50.088;11.414;2022-10-24T09:06:42;13.70;99.90
24814;DHT22;12904;50.088;11.414;2022-10-24T09:09:23;13.70;99.90
24814;DHT22;12904;50.088;11.414;2022-10-24T09:12:02;13.70;99.90
24814;DHT22;12904;50.088;11.414;2022-10-24T09:14:31;13.70;99.90
24814;DHT22;12904;50.088;11.414;2022-10-24T09:22:25;13.80;99.90
24814;DHT22;12904;50.088;11.414;2022-10-24T09:25:04;13.80;99.90
24814;DHT22;12904;50.088;11.414;2022-10-24T09:27:34;13.80;99.90
24814;DHT22;12904;50.088;11.414;2022-10-24T09:30:00;13.80;99.90
24814;DHT22;12904;50.088;11.414;2022-10-24T09:32:30;13.80;99.90
24814;DHT22;12904;50.088;11.414;2022-10-24T09:35:02;13.80;99.90
24814;DHT22;12904;50.088;11.414;2022-10-24T09:37:43;13.90;99.90
24814;DHT22;12904;50.088;11.414;2022-10-24T09:42:38;14.00;99.90
24814;DHT22;12904;50.088;11.414;2022-10-24T09:47:59;14.10;99.90
24814;DHT22;12904;50.088;11.414;2022-10-24T09:50:26;14.10;99.90
24814;DHT22;12904;50.088;11.414;2022-10-24T09:52:57;14.10;99.90
24814;DHT22;12904;50.088;11.414;2022-10-24T09:55:26;14.20;99.90
24814;DHT22;12904;50.088;11.414;2022-10-24T09:57:58;14.20;99.90
24814;DHT22;12904;50.088;11.414;2022-10-24T10:00:35;14.20;99.90
24814;DHT22;12904;50.088;11.414;2022-10-24T10:03:05;14.20;99.90
24814;DHT22;12904;50.088;11.414;2022-10-24T10:05:49;14.10;99.90
24814;DHT22;12904;50.088;11.414;2022-10-24T10:08:28;14.10;99.90
24814;DHT22;12904;50.088;11.414;2022-10-24T10:11:07;14.10;99.90
24814;DHT22;12904;50.088;11.414;2022-10-24T10:13:45;14.20;99.90
24814;DHT22;12904;50.088;11.414;2022-10-24T10:16:36;14.20;99.90
24814;DHT22;12904;50.088;11.414;2022-10-24T10:19:16;14.20;99.90
24814;DHT22;12904;50.088;11.414;2022-10-24T10:21:58;14.20;99.90
24814;DHT22;12904;50.088;11.414;2022-10-24T10:24:42;14.30;99.90
24814;DHT22;12904;50.088;11.414;2022-10-24T10:29:49;14.30;99.90
24814;DHT22;12904;50.088;11.414;2022-10-24T10:32:39;14.40;99.90
24814;DHT22;12904;50.088;11.414;2022-10-24T11:00:21;14.30;99.90
24814;DHT22;12904;50.088;11.414;2022-10-24T11:11:14;14.30;99.90
24814;DHT22;12904;50.088;11.414;2022-10-24T11:13:51;14.30;99.90
24814;DHT22;12904;50.088;11.414;2022-10-24T11:16:25;14.30;99.90
24814;DHT22;12904;50.088;11.414;2022-10-24T11:18:53;14.30;99.90
24814;DHT22;12904;50.088;11.414;2022-10-24T11:21:23;14.30;99.90
24814;DHT22;12904;50.088;11.414;2022-10-24T11:24:14;14.30;99.90
24814;DHT22;12904;50.088;11.414;2022-10-24T11:26:59;14.40;99.90
24814;DHT22;12904;50.088;11.414;2022-10-24T11:29:37;14.40;99.90
24814;DHT22;12904;50.088;11.414;2022-10-24T11:32:19;14.50;99.90
24814;DHT22;12904;50.088;11.414;2022-10-24T11:34:52;14.50;99.90
24814;DHT22;12904;50.088;11.414;2022-10-24T11:37:27;14.60;99.90
24814;DHT22;12904;50.088;11.414;2022-10-24T11:40:00;14.60;99.90
24814;DHT22;12904;50.088;11.414;2022-10-24T11:45:26;14.70;99.90
24814;DHT22;12904;50.088;11.414;2022-10-24T11:47:58;14.70;99.90
24814;DHT22;12904;50.088;11.414;2022-10-24T11:56:18;14.90;99.90
24814;DHT22;12904;50.088;11.414;2022-10-24T11:58:58;14.90;99.90
24814;DHT22;12904;50.088;11.414;2022-10-24T12:01:49;15.00;99.90
24814;DHT22;12904;50.088;11.414;2022-10-24T12:10:30;15.40;99.90
24814;DHT22;12904;50.088;11.414;2022-10-24T12:18:25;15.50;99.90
24814;DHT22;12904;50.088;11.414;2022-10-24T12:20:55;15.60;99.90
24814;DHT22;12904;50.088;11.414;2022-10-24T12:23:23;15.50;99.90
24814;DHT22;12904;50.088;11.414;2022-10-24T12:26:27;15.50;99.90
24814;DHT22;12904;50.088;11.414;2022-10-24T12:28:54;15.60;99.90
24814;DHT22;12904;50.088;11.414;2022-10-24T12:31:25;15.60;99.90
24814;DHT22;12904;50.088;11.414;2022-10-24T12:34:29;15.60;99.90
24814;DHT22;12904;50.088;11.414;2022-10-24T12:39:42;15.70;99.90
24814;DHT22;12904;50.088;11.414;2022-10-24T12:53:38;15.90;99.90
24814;DHT22;12904;50.088;11.414;2022-10-24T12:56:08;16.00;99.90
24814;DHT22;12904;50.088;11.414;2022-10-24T12:58:37;16.10;99.90
24814;DHT22;12904;50.088;11.414;2022-10-24T13:01:11;16.10;99.90
24814;DHT22;12904;50.088;11.414;2022-10-24T13:08:55;16.20;99.90
24814;DHT22;12904;50.088;11.414;2022-10-24T13:11:45;16.30;99.90
24814;DHT22;12904;50.088;11.414;2022-10-24T13:14:19;16.30;99.90
24814;DHT22;12904;50.088;11.414;2022-10-24T13:19:42;16.30;99.90
24814;DHT22;12904;50.088;11.414;2022-10-24T13:22:27;16.30;99.90
24814;DHT22;12904;50.088;11.414;2022-10-24T13:24:53;16.20;99.90
24814;DHT22;12904;50.088;11.414;2022-10-24T13:27:26;16.20;99.90
24814;DHT22;12904;50.088;11.414;2022-10-24T13:37:39;16.10;99.90
24814;DHT22;12904;50.088;11.414;2022-10-24T13:42:42;16.10;99.90
24814;DHT22;12904;50.088;11.414;2022-10-24T13:47:44;16.10;99.90
24814;DHT22;12904;50.088;11.414;2022-10-24T13:50:29;16.00;99.90
24814;DHT22;12904;50.088;11.414;2022-10-24T13:52:59;16.00;99.90
24814;DHT22;12904;50.088;11.414;2022-10-24T13:55:37;16.00;99.90
24814;DHT22;12904;50.088;11.414;2022-10-24T13:58:10;16.00;99.90
24814;DHT22;12904;50.088;11.414;2022-10-24T14:00:42;15.90;99.90
24814;DHT22;12904;50.088;11.414;2022-10-24T14:03:13;15.90;99.90
24814;DHT22;12904;50.088;11.414;2022-10-24T14:09:03;15.80;99.90
24814;DHT22;12904;50.088;11.414;2022-10-24T14:11:38;15.90;99.90
24814;DHT22;12904;50.088;11.414;2022-10-24T14:14:16;15.90;99.90
24814;DHT22;12904;50.088;11.414;2022-10-24T14:16:44;16.00;99.90
24814;DHT22;12904;50.088;11.414;2022-10-24T14:21:41;16.10;99.90
24814;DHT22;12904;50.088;11.414;2022-10-24T14:24:17;16.20;99.90
24814;DHT22;12904;50.088;11.414;2022-10-24T14:26:44;16.20;99.90
24814;DHT22;12904;50.088;11.414;2022-10-24T14:29:29;16.20;99.90
24814;DHT22;12904;50.088;11.414;2022-10-24T14:32:04;16.10;99.90
24814;DHT22;12904;50.088;11.414;2022-10-24T14:34:34;16.00;99.90
24814;DHT22;12904;50.088;11.414;2022-10-24T14:37:06;15.90;99.90
24814;DHT22;12904;50.088;11.414;2022-10-24T14:39:32;15.90;99.90
24814;DHT22;12904;50.088;11.414;2022-10-24T14:41:58;15.80;99.90
24814;DHT22;12904;50.088;11.414;2022-10-24T14:44:26;15.90;99.90
24814;DHT22;12904;50.088;11.414;2022-10-24T14:47:19;15.90;99.90
24814;DHT22;12904;50.088;11.414;2022-10-24T14:49:45;15.80;99.90
24814;DHT22;12904;50.088;11.414;2022-10-24T14:52:22;15.70;99.90
24814;DHT22;12904;50.088;11.414;2022-10-24T14:55:03;15.70;99.90
24814;DHT22;12904;50.088;11.414;2022-10-24T14:57:32;15.60;99.90
24814;DHT22;12904;50.088;11.414;2022-10-24T15:00:01;15.70;99.90
24814;DHT22;12904;50.088;11.414;2022-10-24T15:02:34;15.70;99.90
24814;DHT22;12904;50.088;11.414;2022-10-24T15:07:39;15.70;99.90
24814;DHT22;12904;50.088;11.414;2022-10-24T15:12:45;15.60;99.90
24814;DHT22;12904;50.088;11.414;2022-10-24T15:15:44;15.50;99.90
24814;DHT22;12904;50.088;11.414;2022-10-24T15:20:45;15.50;99.90
24814;DHT22;12904;50.088;11.414;2022-10-24T15:23:44;15.40;99.90
24814;DHT22;12904;50.088;11.414;2022-10-24T15:26:20;15.30;99.90
24814;DHT22;12904;50.088;11.414;2022-10-24T15:29:03;15.20;99.90
24814;DHT22;12904;50.088;11.414;2022-10-24T15:31:32;15.10;99.90
24814;DHT22;12904;50.088;11.414;2022-10-24T15:33:58;15.00;99.90
24814;DHT22;12904;50.088;11.414;2022-10-24T15:36:35;14.90;99.90
24814;DHT22;12904;50.088;11.414;2022-10-24T15:39:12;14.70;99.90
24814;DHT22;12904;50.088;11.414;2022-10-24T15:41:39;14.60;99.90
24814;DHT22;12904;50.088;11.414;2022-10-24T15:46:38;14.50;99.90
24814;DHT22;12904;50.088;11.414;2022-10-24T15:49:03;14.50;99.90
24814;DHT22;12904;50.088;11.414;2022-10-24T15:51:29;14.40;99.90
24814;DHT22;12904;50.088;11.414;2022-10-24T15:53:55;14.40;99.90
24814;DHT22;12904;50.088;11.414;2022-10-24T15:56:20;14.30;99.90
24814;DHT22;12904;50.088;11.414;2022-10-24T15:58:48;14.30;99.90
24814;DHT22;12904;50.088;11.414;2022-10-24T16:01:43;14.30;99.90
24814;DHT22;12904;50.088;11.414;2022-10-24T16:04:12;14.20;99.90
24814;DHT22;12904;50.088;11.414;2022-10-24T16:06:38;14.20;99.90
24814;DHT22;12904;50.088;11.414;2022-10-24T16:09:05;14.20;99.90
24814;DHT22;12904;50.088;11.414;2022-10-24T16:11:34;14.20;99.90
24814;DHT22;12904;50.088;11.414;2022-10-24T16:14:01;14.20;99.90
24814;DHT22;12904;50.088;11.414;2022-10-24T16:16:26;14.10;99.90
24814;DHT22;12904;50.088;11.414;2022-10-24T16:18:52;14.20;99.90
24814;DHT22;12904;50.088;11.414;2022-10-24T16:21:19;14.10;99.90
24814;DHT22;12904;50.088;11.414;2022-10-24T16:23:46;14.00;99.90
24814;DHT22;12904;50.088;11.414;2022-10-24T16:26:12;14.00;99.90
24814;DHT22;12904;50.088;11.414;2022-10-24T16:28:38;14.00;99.90
24814;DHT22;12904;50.088;11.414;2022-10-24T16:31:04;13.90;99.90
24814;DHT22;12904;50.088;11.414;2022-10-24T16:33:31;13.90;99.90
24814;DHT22;12904;50.088;11.414;2022-10-24T16:35:56;13.90;99.90
24814;DHT22;12904;50.088;11.414;2022-10-24T16:38:22;13.90;99.90
24814;DHT22;12904;50.088;11.414;2022-10-24T16:40:48;13.90;99.90
24814;DHT22;12904;50.088;11.414;2022-10-24T16:43:16;13.80;99.90
24814;DHT22;12904;50.088;11.414;2022-10-24T16:45:43;13.80;99.90
24814;DHT22;12904;50.088;11.414;2022-10-24T16:48:11;13.70;99.90
24814;DHT22;12904;50.088;11.414;2022-10-24T16:50:40;13.70;99.90
24814;DHT22;12904;50.088;11.414;2022-10-24T16:53:06;13.70;99.90
24814;DHT22;12904;50.088;11.414;2022-10-24T16:55:33;13.60;99.90
24814;DHT22;12904;50.088;11.414;2022-10-24T16:57:59;13.60;99.90
24814;DHT22;12904;50.088;11.414;2022-10-24T17:00:25;13.60;99.90
24814;DHT22;12904;50.088;11.414;2022-10-24T17:02:52;13.50;99.90
24814;DHT22;12904;50.088;11.414;2022-10-24T17:05:21;13.50;99.90
24814;DHT22;12904;50.088;11.414;2022-10-24T17:07:47;13.40;99.90
24814;DHT22;12904;50.088;11.414;2022-10-24T17:10:13;13.40;99.90
24814;DHT22;12904;50.088;11.414;2022-10-24T17:12:44;13.30;99.90
24814;DHT22;12904;50.088;11.414;2022-10-24T17:15:11;13.20;99.90
24814;DHT22;12904;50.088;11.414;2022-10-24T17:17:37;13.10;99.90
24814;DHT22;12904;50.088;11.414;2022-10-24T17:20:04;13.00;99.90
24814;DHT22;12904;50.088;11.414;2022-10-24T17:22:31;12.90;99.90
24814;DHT22;12904;50.088;11.414;2022-10-24T17:24:57;12.80;99.90
24814;DHT22;12904;50.088;11.414;2022-10-24T17:27:23;12.80;99.90
24814;DHT22;12904;50.088;11.414;2022-10-24T17:29:49;12.80;99.90
24814;DHT22;12904;50.088;11.414;2022-10-24T17:32:15;12.80;99.90
24814;DHT22;12904;50.088;11.414;2022-10-24T17:34:43;12.80;99.90
24814;DHT22;12904;50.088;11.414;2022-10-24T17:37:28;12.80;99.90
24814;DHT22;12904;50.088;11.414;2022-10-24T17:42:25;12.70;99.90
24814;DHT22;12904;50.088;11.414;2022-10-24T17:44:51;12.70;99.90
24814;DHT22;12904;50.088;11.414;2022-10-24T17:47:17;12.70;99.90
24814;DHT22;12904;50.088;11.414;2022-10-24T17:49:42;12.70;99.90
24814;DHT22;12904;50.088;11.414;2022-10-24T17:52:14;12.60;99.90
24814;DHT22;12904;50.088;11.414;2022-10-24T17:54:40;12.60;99.90
24814;DHT22;12904;50.088;11.414;2022-10-24T17:57:06;12.50;99.90
24814;DHT22;12904;50.088;11.414;2022-10-24T17:59:32;12.50;99.90
24814;DHT22;12904;50.088;11.414;2022-10-24T18:01:59;12.50;99.90
24814;DHT22;12904;50.088;11.414;2022-10-24T18:04:24;12.50;99.90
24814;DHT22;12904;50.088;11.414;2022-10-24T18:06:50;12.50;99.90